createdAt,value
2019-04-04T18:34:20.203Z,3.90
2019-04-04T18:36:50.114Z,3.80
2019-04-04T18:39:20.297Z,3.90
2019-04-04T18:41:50.998Z,3.90
2019-04-04T18:44:20.949Z,3.90
2019-04-04T18:46:50.865Z,3.70
2019-04-04T18:49:22.378Z,3.70
2019-04-04T18:51:52.288Z,3.60
2019-04-04T18:54:23.084Z,3.50
2019-04-04T18:56:54.335Z,3.60
2019-04-04T18:59:24.646Z,3.60
2019-04-04T19:01:54.834Z,3.70
2019-04-04T19:04:24.777Z,3.60
2019-04-04T19:06:54.733Z,3.60
2019-04-04T19:09:24.634Z,3.60
2019-04-04T19:11:54.766Z,3.70
2019-04-04T19:14:24.749Z,3.60
2019-04-04T19:16:54.720Z,3.60
2019-04-04T19:19:25.423Z,3.70
2019-04-04T19:21:55.542Z,3.70
2019-04-04T19:24:25.478Z,3.70
2019-04-04T19:26:55.820Z,3.50
2019-04-04T19:29:25.929Z,3.50
2019-04-04T19:31:56.359Z,3.60
2019-04-04T19:34:26.496Z,3.70
2019-04-04T19:36:56.967Z,3.70
2019-04-04T19:39:27.120Z,3.60
2019-04-04T19:41:57.065Z,3.80
2019-04-04T19:44:28.235Z,3.70
2019-04-04T19:46:58.614Z,3.50
2019-04-04T19:49:29.501Z,3.50
2019-04-04T19:52:00.489Z,3.50
2019-04-04T19:54:32.851Z,3.40
2019-04-04T19:57:03.237Z,3.40
2019-04-04T19:59:33.443Z,3.40
2019-04-04T20:02:03.469Z,3.30
2019-04-04T20:04:34.484Z,3.40
2019-04-04T20:07:05.955Z,3.50
2019-04-04T20:09:37.225Z,3.40
2019-04-04T20:12:07.851Z,3.30
2019-04-04T20:14:38.128Z,3.30
2019-04-04T20:17:08.016Z,3.20
2019-04-04T20:19:37.985Z,3.20
2019-04-04T20:22:08.988Z,3.30
2019-04-04T20:24:39.271Z,3.30
2019-04-04T20:27:09.166Z,3.40
2019-04-04T20:29:39.124Z,3.50
2019-04-04T20:32:10.276Z,3.40
2019-04-04T20:34:40.978Z,3.60
2019-04-04T20:37:11.963Z,3.40
2019-04-04T20:39:42.458Z,3.40
2019-04-04T20:42:12.690Z,3.40
2019-04-04T20:44:42.726Z,3.40
2019-04-04T20:47:13.878Z,3.20
2019-04-04T20:49:43.779Z,3.10
2019-04-04T20:52:18.292Z,3.20
2019-04-04T20:54:51.869Z,3.20
2019-04-04T20:57:23.216Z,3.20
2019-04-04T20:59:53.169Z,3.10
2019-04-04T21:02:23.117Z,2.90
2019-04-04T21:04:54.370Z,3.00
2019-04-04T21:07:25.571Z,3.00
2019-04-04T21:09:55.528Z,3.00
2019-04-04T21:12:25.421Z,3.10
2019-04-04T21:14:55.380Z,3.00
2019-04-04T21:17:25.281Z,2.90
2019-04-04T21:19:55.240Z,2.90
2019-04-04T21:22:27.853Z,2.90
2019-04-04T21:24:56.791Z,2.90
2019-04-04T21:27:26.689Z,2.70
2019-04-04T21:29:56.653Z,2.70
2019-04-04T21:32:26.546Z,2.70
2019-04-04T21:34:56.483Z,2.80
2019-04-04T21:37:26.425Z,2.90
2019-04-04T21:39:56.477Z,3.00
2019-04-04T21:42:26.364Z,2.90
2019-04-04T21:44:56.321Z,2.90
2019-04-04T21:47:26.199Z,2.80
2019-04-04T21:49:56.149Z,2.80
2019-04-04T21:52:26.036Z,2.80
2019-04-04T21:54:55.976Z,2.80
